createdAt,value
2016-12-24T00:00:43.196Z,0
2016-12-24T00:01:53.891Z,0
2016-12-24T00:03:04.637Z,0
2016-12-24T00:04:15.363Z,0
2016-12-24T00:05:26.082Z,0
2016-12-24T00:06:36.800Z,0
2016-12-24T00:07:47.503Z,0
2016-12-24T00:08:58.242Z,0
2016-12-24T00:10:08.938Z,0
2016-12-24T00:11:19.655Z,0
2016-12-24T00:12:30.359Z,0
2016-12-24T00:13:41.094Z,0
2016-12-24T00:14:51.826Z,0
2016-12-24T00:16:02.550Z,0
2016-12-24T00:17:13.268Z,0
2016-12-24T00:18:24.011Z,0
2016-12-24T00:19:34.731Z,0
2016-12-24T00:20:45.427Z,0
2016-12-24T00:21:56.123Z,0
2016-12-24T00:23:06.844Z,0
2016-12-24T00:24:17.549Z,0
2016-12-24T00:25:28.305Z,0
2016-12-24T00:26:39.050Z,0
2016-12-24T00:27:49.761Z,0
2016-12-24T00:29:00.500Z,0
2016-12-24T00:30:11.222Z,0
2016-12-24T00:31:21.942Z,0
2016-12-24T00:32:32.667Z,0
2016-12-24T00:33:43.384Z,0
2016-12-24T00:34:54.083Z,0
2016-12-24T00:36:04.809Z,0
2016-12-24T00:37:15.564Z,0
2016-12-24T00:38:26.314Z,0
2016-12-24T00:39:37.042Z,0
2016-12-24T00:40:47.778Z,0
2016-12-24T00:41:58.506Z,0
2016-12-24T00:43:09.205Z,0
2016-12-24T00:44:19.925Z,0
2016-12-24T00:45:30.647Z,0
2016-12-24T00:46:41.365Z,0
2016-12-24T00:47:52.062Z,0
2016-12-24T00:49:02.775Z,0
2016-12-24T00:50:13.499Z,0
2016-12-24T00:51:24.227Z,0
2016-12-24T00:52:34.948Z,0
2016-12-24T00:53:45.665Z,0
2016-12-24T00:54:56.391Z,0
2016-12-24T00:56:07.128Z,0
2016-12-24T00:57:17.858Z,0
2016-12-24T00:58:28.592Z,0
2016-12-24T00:59:39.325Z,0
2016-12-24T01:00:50.048Z,0
2016-12-24T01:02:00.741Z,0
2016-12-24T01:03:11.435Z,0
2016-12-24T01:04:22.158Z,0
2016-12-24T01:05:32.907Z,0
2016-12-24T01:06:43.647Z,0
2016-12-24T01:07:54.371Z,0
2016-12-24T01:09:05.064Z,0
2016-12-24T01:10:15.768Z,0
2016-12-24T01:11:26.484Z,0
2016-12-24T01:12:37.179Z,0
2016-12-24T01:13:47.876Z,0
2016-12-24T01:14:58.612Z,0
2016-12-24T01:16:09.336Z,0
2016-12-24T01:17:20.042Z,0
2016-12-24T01:18:30.782Z,0
2016-12-24T01:19:41.489Z,0
2016-12-24T01:20:52.524Z,0
2016-12-24T01:22:03.247Z,0
2016-12-24T01:23:14.270Z,0
2016-12-24T01:24:25.054Z,0
2016-12-24T01:25:35.790Z,0
2016-12-24T01:26:46.508Z,0
2016-12-24T01:27:57.221Z,0
2016-12-24T01:29:07.949Z,0
2016-12-24T01:30:18.713Z,0
2016-12-24T01:31:29.439Z,0
2016-12-24T01:32:40.185Z,0
2016-12-24T01:33:51.229Z,0
2016-12-24T01:35:01.955Z,0
2016-12-24T01:36:12.677Z,0
2016-12-24T01:37:23.396Z,0
2016-12-24T01:38:34.114Z,0
2016-12-24T01:39:44.814Z,0
2016-12-24T01:40:55.577Z,0
2016-12-24T01:42:06.586Z,0
2016-12-24T01:43:17.301Z,0
2016-12-24T01:44:28.039Z,0
2016-12-24T01:45:38.761Z,0
2016-12-24T01:46:49.481Z,0
2016-12-24T01:48:00.210Z,0
2016-12-24T01:49:10.975Z,0
2016-12-24T01:50:21.699Z,0
2016-12-24T01:51:32.400Z,0
2016-12-24T01:52:43.119Z,0
2016-12-24T01:53:53.857Z,0
2016-12-24T01:55:04.575Z,0
2016-12-24T01:56:15.306Z,0
2016-12-24T01:57:26.000Z,0
2016-12-24T01:58:36.724Z,0
2016-12-24T01:59:47.469Z,0
2016-12-24T02:00:58.213Z,0
2016-12-24T02:02:08.936Z,0
2016-12-24T02:03:19.654Z,0
2016-12-24T02:04:30.378Z,0
2016-12-24T02:05:41.123Z,0
2016-12-24T02:06:51.841Z,0
2016-12-24T02:08:02.869Z,0
2016-12-24T02:09:13.583Z,0
2016-12-24T02:10:24.283Z,0
2016-12-24T02:11:35.029Z,0
2016-12-24T02:12:45.774Z,0
2016-12-24T02:13:56.473Z,0
2016-12-24T02:15:07.206Z,0
2016-12-24T02:16:17.933Z,0
2016-12-24T02:17:28.647Z,0
2016-12-24T02:18:39.354Z,0
2016-12-24T02:19:50.081Z,0
2016-12-24T02:21:00.798Z,0
2016-12-24T02:22:11.816Z,0
2016-12-24T02:23:22.517Z,0
2016-12-24T02:24:33.255Z,0
2016-12-24T02:25:43.957Z,0
2016-12-24T02:26:54.648Z,0
2016-12-24T02:28:05.361Z,0
2016-12-24T02:29:16.088Z,0
2016-12-24T02:30:26.791Z,0
2016-12-24T02:31:37.523Z,0
2016-12-24T02:32:48.255Z,0
2016-12-24T02:33:58.973Z,0
2016-12-24T02:35:09.694Z,0
2016-12-24T02:36:20.394Z,0
2016-12-24T02:37:31.143Z,0
2016-12-24T02:38:41.910Z,0
2016-12-24T02:39:52.656Z,0
2016-12-24T02:41:03.377Z,0
2016-12-24T02:42:14.094Z,0
2016-12-24T02:43:24.822Z,0
2016-12-24T02:44:35.587Z,0
2016-12-24T02:45:46.307Z,0
2016-12-24T02:46:57.056Z,0
2016-12-24T02:48:07.803Z,0
2016-12-24T02:49:18.545Z,0
2016-12-24T02:50:29.269Z,0
2016-12-24T02:51:39.991Z,0
2016-12-24T02:52:50.736Z,0
2016-12-24T02:54:01.454Z,0
2016-12-24T02:55:12.179Z,0
2016-12-24T02:56:22.927Z,0
2016-12-24T02:57:33.649Z,0
2016-12-24T02:58:44.363Z,0
2016-12-24T02:59:55.084Z,0
2016-12-24T03:01:05.783Z,0
2016-12-24T03:02:16.522Z,0
2016-12-24T03:03:27.227Z,0
2016-12-24T03:04:37.922Z,0
2016-12-24T03:05:48.648Z,0
2016-12-24T03:06:59.382Z,0
2016-12-24T03:08:10.107Z,0
2016-12-24T03:09:20.857Z,0
2016-12-24T03:10:31.577Z,0
2016-12-24T03:11:42.312Z,0
2016-12-24T03:12:53.070Z,0
2016-12-24T03:14:03.812Z,0
2016-12-24T03:15:14.511Z,0
2016-12-24T03:16:25.239Z,0
2016-12-24T03:17:35.950Z,0
2016-12-24T03:18:46.670Z,0
2016-12-24T03:19:57.370Z,0
2016-12-24T03:21:08.096Z,0
2016-12-24T03:22:18.812Z,0
2016-12-24T03:23:29.564Z,0
2016-12-24T03:24:40.267Z,0
2016-12-24T03:25:50.997Z,0
2016-12-24T03:27:01.702Z,0
2016-12-24T03:28:12.444Z,0
2016-12-24T03:29:23.160Z,0
2016-12-24T03:30:33.876Z,0
2016-12-24T03:31:44.605Z,0
2016-12-24T03:32:55.328Z,0
2016-12-24T03:34:06.019Z,0
2016-12-24T03:35:16.740Z,0
2016-12-24T03:36:27.464Z,0
2016-12-24T03:37:38.212Z,0
2016-12-24T03:38:48.919Z,0
2016-12-24T03:39:59.645Z,0
2016-12-24T03:41:10.374Z,0
2016-12-24T03:42:21.096Z,0
2016-12-24T03:43:31.815Z,0
2016-12-24T03:44:42.536Z,0
2016-12-24T03:45:53.259Z,0
2016-12-24T03:47:03.957Z,0
2016-12-24T03:48:14.696Z,0
2016-12-24T03:49:25.421Z,0
2016-12-24T03:50:36.138Z,0
2016-12-24T03:51:46.865Z,0
2016-12-24T03:52:57.583Z,0
2016-12-24T03:54:08.633Z,0
2016-12-24T03:55:19.378Z,0
2016-12-24T03:56:30.075Z,0
2016-12-24T03:57:40.814Z,0
2016-12-24T03:58:51.539Z,0
2016-12-24T04:00:02.263Z,0
2016-12-24T04:01:13.307Z,0
2016-12-24T04:02:24.041Z,0
2016-12-24T04:03:34.773Z,0
2016-12-24T04:04:45.495Z,0
2016-12-24T04:05:56.240Z,0
2016-12-24T04:07:06.987Z,0
2016-12-24T04:08:17.728Z,0
2016-12-24T04:09:28.467Z,0
2016-12-24T04:10:39.199Z,0
2016-12-24T04:11:49.922Z,0
2016-12-24T04:13:00.662Z,0
2016-12-24T04:14:11.383Z,0
2016-12-24T04:15:22.101Z,0
2016-12-24T04:16:32.829Z,0
2016-12-24T04:17:43.564Z,0
2016-12-24T04:18:54.268Z,0
2016-12-24T04:20:04.985Z,0
2016-12-24T04:21:15.713Z,0
2016-12-24T04:22:26.448Z,0
2016-12-24T04:23:37.205Z,0
2016-12-24T04:24:47.952Z,0
2016-12-24T04:25:59.023Z,0
2016-12-24T04:27:09.746Z,0
2016-12-24T04:28:20.466Z,0
2016-12-24T04:29:31.187Z,0
2016-12-24T04:30:41.903Z,0
2016-12-24T04:31:52.641Z,0
2016-12-24T04:33:03.374Z,0
2016-12-24T04:34:14.115Z,0
2016-12-24T04:35:24.837Z,0
2016-12-24T04:36:35.555Z,0
2016-12-24T04:37:46.297Z,0
2016-12-24T04:38:57.042Z,0
2016-12-24T04:40:07.774Z,0
2016-12-24T04:41:18.492Z,0
2016-12-24T04:42:29.213Z,0
2016-12-24T04:43:39.914Z,0
2016-12-24T04:44:50.637Z,0
2016-12-24T04:46:01.377Z,0
2016-12-24T04:47:12.094Z,0
2016-12-24T04:48:22.822Z,0
2016-12-24T04:49:33.564Z,0
2016-12-24T04:50:44.285Z,0
2016-12-24T04:51:54.981Z,0
2016-12-24T04:53:05.702Z,0
2016-12-24T04:54:16.404Z,0
2016-12-24T04:55:27.119Z,0
2016-12-24T04:56:37.844Z,0
2016-12-24T04:57:48.579Z,0
2016-12-24T04:58:59.311Z,0
2016-12-24T05:00:10.058Z,0
2016-12-24T05:01:20.778Z,0
2016-12-24T05:02:31.524Z,0
2016-12-24T05:03:42.241Z,0
2016-12-24T05:04:52.946Z,0
2016-12-24T05:06:03.688Z,0
2016-12-24T05:07:14.431Z,0
2016-12-24T05:08:25.179Z,0
2016-12-24T05:09:35.899Z,0
2016-12-24T05:10:46.598Z,0
2016-12-24T05:11:57.314Z,0
2016-12-24T05:13:08.039Z,0
2016-12-24T05:14:18.773Z,0
2016-12-24T05:15:29.510Z,0
2016-12-24T05:16:40.252Z,0
2016-12-24T05:17:50.969Z,0
2016-12-24T05:19:01.665Z,0
2016-12-24T05:20:12.717Z,0
2016-12-24T05:21:23.436Z,0
2016-12-24T05:22:34.161Z,0
2016-12-24T05:23:45.182Z,0
2016-12-24T05:24:55.896Z,0
2016-12-24T05:26:06.625Z,0
2016-12-24T05:27:17.358Z,0
2016-12-24T05:28:28.084Z,0
2016-12-24T05:29:38.783Z,0
2016-12-24T05:30:49.518Z,0
2016-12-24T05:32:00.250Z,0
2016-12-24T05:33:10.967Z,0
2016-12-24T05:34:21.690Z,0
2016-12-24T05:35:32.413Z,0
2016-12-24T05:36:43.134Z,0
2016-12-24T05:37:54.183Z,0
2016-12-24T05:39:04.926Z,0
2016-12-24T05:40:15.636Z,0
2016-12-24T05:41:26.369Z,0
2016-12-24T05:42:37.085Z,0
2016-12-24T05:43:47.789Z,0
2016-12-24T05:44:58.507Z,0
2016-12-24T05:46:09.249Z,0
2016-12-24T05:47:19.972Z,0
2016-12-24T05:48:30.695Z,0
2016-12-24T05:49:41.441Z,0
2016-12-24T05:50:52.178Z,0
2016-12-24T05:52:02.903Z,0
2016-12-24T05:53:13.675Z,0
2016-12-24T05:54:24.400Z,0
2016-12-24T05:55:35.096Z,0
2016-12-24T05:56:45.833Z,0
2016-12-24T05:57:56.583Z,0
2016-12-24T05:59:07.287Z,0
2016-12-24T06:00:18.022Z,0
2016-12-24T06:01:28.772Z,0
2016-12-24T06:02:39.496Z,0
2016-12-24T06:03:50.518Z,0
2016-12-24T06:05:01.240Z,0
2016-12-24T06:06:11.959Z,0
2016-12-24T06:07:22.659Z,0
2016-12-24T06:08:33.402Z,0
2016-12-24T06:09:44.122Z,0
2016-12-24T06:10:54.874Z,0
2016-12-24T06:12:05.615Z,0
2016-12-24T06:13:16.332Z,0
2016-12-24T06:14:27.057Z,0
2016-12-24T06:15:37.803Z,0
2016-12-24T06:16:48.524Z,0
2016-12-24T06:17:59.251Z,0
2016-12-24T06:19:09.983Z,0
2016-12-24T06:20:20.711Z,0
2016-12-24T06:21:31.704Z,0
2016-12-24T06:22:42.442Z,0
2016-12-24T06:23:53.147Z,0
2016-12-24T06:25:03.867Z,0
2016-12-24T06:26:14.594Z,0
2016-12-24T06:27:25.309Z,0
2016-12-24T06:28:36.025Z,0
2016-12-24T06:29:46.756Z,0
2016-12-24T06:30:57.472Z,0
2016-12-24T06:32:08.177Z,0
2016-12-24T06:33:18.893Z,0
2016-12-24T06:34:29.640Z,0
2016-12-24T06:35:40.360Z,0
2016-12-24T06:36:51.098Z,0
2016-12-24T06:38:01.799Z,0
2016-12-24T06:39:12.837Z,0
2016-12-24T06:40:23.568Z,0
2016-12-24T06:41:34.270Z,0
2016-12-24T06:42:44.982Z,0
2016-12-24T06:43:55.707Z,0
2016-12-24T06:45:06.431Z,0
2016-12-24T06:46:17.149Z,0
2016-12-24T06:47:27.869Z,4
2016-12-24T06:48:38.593Z,4
2016-12-24T06:49:49.337Z,0
2016-12-24T06:51:00.084Z,4
2016-12-24T06:52:10.800Z,4
2016-12-24T06:53:21.525Z,4
2016-12-24T06:54:32.275Z,8
2016-12-24T06:55:43.022Z,8
2016-12-24T06:56:53.762Z,12
2016-12-24T06:58:04.509Z,8
2016-12-24T06:59:15.226Z,8
2016-12-24T07:00:25.977Z,8
2016-12-24T07:01:36.719Z,12
2016-12-24T07:02:47.440Z,16
2016-12-24T07:03:58.165Z,16
2016-12-24T07:05:08.881Z,20
2016-12-24T07:06:19.606Z,32
2016-12-24T07:07:30.349Z,32
2016-12-24T07:08:41.069Z,64
2016-12-24T07:09:51.815Z,84
2016-12-24T07:11:02.516Z,88
2016-12-24T07:12:13.253Z,108
2016-12-24T07:13:23.978Z,124
2016-12-24T07:14:34.700Z,136
2016-12-24T07:15:45.424Z,132
2016-12-24T07:16:56.158Z,128
2016-12-24T07:18:06.887Z,120
2016-12-24T07:19:17.612Z,124
2016-12-24T07:20:28.357Z,152
2016-12-24T07:21:39.103Z,136
2016-12-24T07:22:49.822Z,132
2016-12-24T07:24:00.549Z,108
2016-12-24T07:25:11.292Z,132
2016-12-24T07:26:22.035Z,112
2016-12-24T07:27:32.782Z,120
2016-12-24T07:28:43.501Z,140
2016-12-24T07:29:54.202Z,248
2016-12-24T07:31:04.946Z,276
2016-12-24T07:32:15.692Z,232
2016-12-24T07:33:26.440Z,248
2016-12-24T07:34:37.161Z,284
2016-12-24T07:35:47.902Z,276
2016-12-24T07:36:58.627Z,256
2016-12-24T07:38:09.351Z,232
2016-12-24T07:39:20.090Z,212
2016-12-24T07:40:30.828Z,244
2016-12-24T07:41:41.557Z,316
2016-12-24T07:42:52.258Z,316
2016-12-24T07:44:02.949Z,288
2016-12-24T07:45:13.671Z,332
2016-12-24T07:46:24.716Z,340
2016-12-24T07:47:35.415Z,324
2016-12-24T07:48:46.110Z,352
2016-12-24T07:49:56.830Z,344
2016-12-24T07:51:07.528Z,308
2016-12-24T07:52:18.550Z,256
2016-12-24T07:53:29.270Z,284
2016-12-24T07:54:40.017Z,316
2016-12-24T07:55:50.763Z,372
2016-12-24T07:57:01.506Z,404
2016-12-24T07:58:12.231Z,432
2016-12-24T07:59:22.964Z,476
2016-12-24T08:00:33.697Z,472
2016-12-24T08:01:44.438Z,592
2016-12-24T08:02:55.163Z,684
2016-12-24T08:04:05.927Z,624
2016-12-24T08:05:16.655Z,672
2016-12-24T08:06:27.377Z,660
2016-12-24T08:07:38.093Z,648
2016-12-24T08:08:48.865Z,692
2016-12-24T08:09:59.589Z,884
2016-12-24T08:11:10.324Z,1072
2016-12-24T08:12:21.056Z,1096
2016-12-24T08:13:31.792Z,1152
2016-12-24T08:14:42.519Z,1040
2016-12-24T08:15:53.219Z,1208
2016-12-24T08:17:03.940Z,1064
2016-12-24T08:18:14.683Z,1132
2016-12-24T08:19:25.403Z,1320
2016-12-24T08:20:36.125Z,1632
2016-12-24T08:21:46.866Z,1368
2016-12-24T08:22:57.612Z,1596
2016-12-24T08:24:08.321Z,1544
2016-12-24T08:25:19.054Z,1412
2016-12-24T08:26:29.779Z,1160
2016-12-24T08:27:40.508Z,1200
2016-12-24T08:28:51.246Z,1312
2016-12-24T08:30:01.948Z,1504
2016-12-24T08:31:12.673Z,1392
2016-12-24T08:32:23.409Z,1196
2016-12-24T08:33:34.133Z,1416
2016-12-24T08:34:44.856Z,1412
2016-12-24T08:35:55.597Z,1500
2016-12-24T08:37:06.322Z,1460
2016-12-24T08:38:17.068Z,1496
2016-12-24T08:39:27.788Z,1644
2016-12-24T08:40:38.515Z,1392
2016-12-24T08:41:49.227Z,1832
2016-12-24T08:42:59.982Z,2304
2016-12-24T08:44:10.715Z,2656
2016-12-24T08:45:21.445Z,2616
2016-12-24T08:46:32.469Z,2148
2016-12-24T08:47:43.181Z,1732
2016-12-24T08:48:53.925Z,1220
2016-12-24T08:50:04.652Z,1316
2016-12-24T08:51:15.375Z,1904
2016-12-24T08:52:26.116Z,1988
2016-12-24T08:53:36.816Z,1816
2016-12-24T08:54:47.562Z,1188
2016-12-24T08:55:58.311Z,948
2016-12-24T08:57:09.054Z,1708
2016-12-24T08:58:19.771Z,2424
2016-12-24T08:59:30.491Z,1588
2016-12-24T09:00:41.217Z,1688
2016-12-24T09:01:51.936Z,2508
2016-12-24T09:03:02.662Z,1984
2016-12-24T09:04:13.403Z,2192
2016-12-24T09:05:24.106Z,3640
2016-12-24T09:06:34.842Z,4108
2016-12-24T09:07:45.557Z,4496
2016-12-24T09:08:56.284Z,4736
2016-12-24T09:10:06.980Z,4860
2016-12-24T09:11:17.704Z,5008
2016-12-24T09:12:28.427Z,5072
2016-12-24T09:13:39.120Z,3600
2016-12-24T09:14:49.848Z,3136
2016-12-24T09:16:00.590Z,4476
2016-12-24T09:17:11.307Z,5112
2016-12-24T09:18:22.031Z,5360
2016-12-24T09:19:32.773Z,5440
2016-12-24T09:20:43.503Z,6072
2016-12-24T09:21:54.248Z,6080
2016-12-24T09:23:04.987Z,5920
2016-12-24T09:24:15.714Z,5752
2016-12-24T09:25:26.432Z,5556
2016-12-24T09:26:37.192Z,5292
2016-12-24T09:27:47.920Z,5192
2016-12-24T09:28:58.670Z,5148
2016-12-24T09:30:09.384Z,4708
2016-12-24T09:31:20.135Z,4468
2016-12-24T09:32:30.859Z,3284
2016-12-24T09:33:41.607Z,3396
2016-12-24T09:34:52.323Z,2864
2016-12-24T09:36:03.071Z,3240
2016-12-24T09:37:13.815Z,3336
2016-12-24T09:38:24.566Z,2676
2016-12-24T09:39:35.260Z,2488
2016-12-24T09:40:45.995Z,3400
2016-12-24T09:41:56.725Z,2920
2016-12-24T09:43:07.515Z,2820
2016-12-24T09:44:18.232Z,2972
2016-12-24T09:45:28.965Z,3456
2016-12-24T09:46:39.700Z,3588
2016-12-24T09:47:50.407Z,3648
2016-12-24T09:49:01.456Z,3700
2016-12-24T09:50:12.194Z,3712
2016-12-24T09:51:22.922Z,3768
2016-12-24T09:52:33.666Z,3872
2016-12-24T09:53:44.386Z,3836
2016-12-24T09:54:55.129Z,3900
2016-12-24T09:56:05.830Z,4064
2016-12-24T09:57:16.570Z,4076
2016-12-24T09:58:27.616Z,3528
2016-12-24T09:59:38.364Z,3452
2016-12-24T10:00:49.059Z,3536
2016-12-24T10:01:59.792Z,3864
2016-12-24T10:03:10.830Z,3492
2016-12-24T10:04:21.581Z,3576
2016-12-24T10:05:32.323Z,3588
2016-12-24T10:06:43.067Z,3880
2016-12-24T10:07:53.810Z,4060
2016-12-24T10:09:04.548Z,4440
2016-12-24T10:10:15.276Z,4664
2016-12-24T10:11:25.990Z,4760
2016-12-24T10:12:36.714Z,4756
2016-12-24T10:13:47.444Z,4676
2016-12-24T10:14:58.202Z,4576
2016-12-24T10:16:08.911Z,4584
2016-12-24T10:17:19.649Z,4568
2016-12-24T10:18:30.374Z,4568
2016-12-24T10:19:41.375Z,4640
2016-12-24T10:20:52.116Z,4640
2016-12-24T10:22:02.858Z,4488
2016-12-24T10:23:13.582Z,4140
2016-12-24T10:24:24.332Z,4360
2016-12-24T10:25:35.074Z,4564
2016-12-24T10:26:46.096Z,4856
2016-12-24T10:27:56.863Z,4636
2016-12-24T10:29:07.593Z,4352
2016-12-24T10:30:18.363Z,4660
2016-12-24T10:31:29.104Z,4612
2016-12-24T10:32:39.850Z,5244
2016-12-24T10:33:50.573Z,5468
2016-12-24T10:35:01.288Z,5516
2016-12-24T10:36:11.991Z,5520
2016-12-24T10:37:22.717Z,4952
2016-12-24T10:38:33.438Z,4056
2016-12-24T10:39:44.181Z,4656
2016-12-24T10:40:54.926Z,5176
2016-12-24T10:42:05.648Z,5420
2016-12-24T10:43:16.371Z,5488
2016-12-24T10:44:27.115Z,5488
2016-12-24T10:45:37.806Z,5528
2016-12-24T10:46:48.506Z,5544
2016-12-24T10:47:59.252Z,5720
2016-12-24T10:49:09.994Z,5948
2016-12-24T10:50:20.740Z,5864
2016-12-24T10:51:31.464Z,5520
2016-12-24T10:52:42.217Z,6096
2016-12-24T10:53:52.962Z,6336
2016-12-24T10:55:03.702Z,6416
2016-12-24T10:56:14.438Z,6148
2016-12-24T10:57:25.184Z,4972
2016-12-24T10:58:35.912Z,4144
2016-12-24T10:59:46.637Z,4804
2016-12-24T11:00:57.375Z,4120
2016-12-24T11:02:08.103Z,5340
2016-12-24T11:03:18.848Z,6324
2016-12-24T11:04:29.545Z,6832
2016-12-24T11:05:40.263Z,5648
2016-12-24T11:06:50.964Z,4224
2016-12-24T11:08:01.663Z,3288
2016-12-24T11:09:12.430Z,3472
2016-12-24T11:10:23.201Z,3836
2016-12-24T11:11:33.926Z,3924
2016-12-24T11:12:44.663Z,3552
2016-12-24T11:13:55.689Z,3548
2016-12-24T11:15:06.423Z,2560
2016-12-24T11:16:17.152Z,1808
2016-12-24T11:17:27.872Z,2028
2016-12-24T11:18:38.594Z,1828
2016-12-24T11:19:49.297Z,1332
2016-12-24T11:21:00.064Z,2016
2016-12-24T11:22:10.784Z,2392
2016-12-24T11:23:21.507Z,3368
2016-12-24T11:24:32.250Z,3880
2016-12-24T11:25:42.969Z,4308
2016-12-24T11:26:53.665Z,4228
2016-12-24T11:28:04.379Z,4608
2016-12-24T11:29:15.111Z,4396
2016-12-24T11:30:25.835Z,4032
2016-12-24T11:31:36.557Z,3420
2016-12-24T11:32:47.300Z,4640
2016-12-24T11:33:58.020Z,3736
2016-12-24T11:35:08.759Z,3640
2016-12-24T11:36:19.483Z,4984
2016-12-24T11:37:30.207Z,3072
2016-12-24T11:38:40.925Z,4880
2016-12-24T11:39:51.649Z,4768
2016-12-24T11:41:02.366Z,3264
2016-12-24T11:42:13.091Z,2808
2016-12-24T11:43:23.808Z,3568
2016-12-24T11:44:34.532Z,5168
2016-12-24T11:45:45.250Z,5964
2016-12-24T11:46:55.975Z,4056
2016-12-24T11:48:06.717Z,4520
2016-12-24T11:49:17.434Z,3132
2016-12-24T11:50:28.160Z,2796
2016-12-24T11:51:38.883Z,3704
2016-12-24T11:52:49.601Z,4488
2016-12-24T11:54:00.321Z,3652
2016-12-24T11:55:11.046Z,2444
2016-12-24T11:56:21.772Z,2768
2016-12-24T11:57:32.534Z,3632
2016-12-24T11:58:43.262Z,4560
2016-12-24T11:59:54.019Z,4640
2016-12-24T12:01:04.742Z,4588
2016-12-24T12:02:15.489Z,4016
2016-12-24T12:03:26.220Z,3740
2016-12-24T12:04:36.935Z,3632
2016-12-24T12:05:47.663Z,4020
2016-12-24T12:06:58.405Z,2756
2016-12-24T12:08:09.152Z,2756
2016-12-24T12:09:19.901Z,2920
2016-12-24T12:10:30.640Z,2736
2016-12-24T12:11:41.362Z,3368
2016-12-24T12:12:52.085Z,4340
2016-12-24T12:14:02.803Z,5476
2016-12-24T12:15:13.527Z,5716
2016-12-24T12:16:24.262Z,5300
2016-12-24T12:17:34.970Z,5144
2016-12-24T12:18:45.692Z,5872
2016-12-24T12:19:56.412Z,5836
2016-12-24T12:21:07.458Z,6076
2016-12-24T12:22:18.203Z,5956
2016-12-24T12:23:28.939Z,5860
2016-12-24T12:24:39.695Z,5648
2016-12-24T12:25:50.713Z,5464
2016-12-24T12:27:01.437Z,5280
2016-12-24T12:28:12.164Z,5184
2016-12-24T12:29:23.230Z,5220
2016-12-24T12:30:33.977Z,5376
2016-12-24T12:31:44.714Z,5620
2016-12-24T12:32:55.438Z,5892
2016-12-24T12:34:06.159Z,5792
2016-12-24T12:35:16.884Z,5552
2016-12-24T12:36:27.608Z,5448
2016-12-24T12:37:38.344Z,5340
2016-12-24T12:38:49.073Z,5368
2016-12-24T12:39:59.819Z,5172
2016-12-24T12:41:10.564Z,4924
2016-12-24T12:42:21.306Z,4648
2016-12-24T12:43:32.028Z,4752
2016-12-24T12:44:42.753Z,5448
2016-12-24T12:45:53.503Z,6396
2016-12-24T12:47:04.244Z,6900
2016-12-24T12:48:14.980Z,6980
2016-12-24T12:49:25.708Z,6968
2016-12-24T12:50:36.432Z,6980
2016-12-24T12:51:47.154Z,6696
2016-12-24T12:52:57.874Z,5944
2016-12-24T12:54:08.617Z,4784
2016-12-24T12:55:19.341Z,3800
2016-12-24T12:56:30.080Z,3460
2016-12-24T12:57:40.834Z,3380
2016-12-24T12:58:51.556Z,3432
2016-12-24T13:00:02.301Z,3764
2016-12-24T13:01:13.047Z,4272
2016-12-24T13:02:23.773Z,4768
2016-12-24T13:03:34.486Z,5124
2016-12-24T13:04:45.212Z,4964
2016-12-24T13:05:55.953Z,4608
2016-12-24T13:07:06.676Z,4268
2016-12-24T13:08:17.422Z,4176
2016-12-24T13:09:28.162Z,4380
2016-12-24T13:10:38.915Z,4824
2016-12-24T13:11:49.637Z,5168
2016-12-24T13:13:00.361Z,5072
2016-12-24T13:14:11.128Z,4572
2016-12-24T13:15:21.871Z,3844
2016-12-24T13:16:32.592Z,3480
2016-12-24T13:17:43.309Z,3252
2016-12-24T13:18:54.053Z,3164
2016-12-24T13:20:04.809Z,3020
2016-12-24T13:21:15.526Z,2948
2016-12-24T13:22:26.252Z,2788
2016-12-24T13:23:36.985Z,2788
2016-12-24T13:24:47.694Z,2824
2016-12-24T13:25:58.439Z,2908
2016-12-24T13:27:09.181Z,2948
2016-12-24T13:28:19.903Z,3036
2016-12-24T13:29:30.645Z,2984
2016-12-24T13:30:41.390Z,2900
2016-12-24T13:31:52.120Z,2660
2016-12-24T13:33:02.842Z,2344
2016-12-24T13:34:13.887Z,1980
2016-12-24T13:35:24.607Z,1940
2016-12-24T13:36:35.335Z,1884
2016-12-24T13:37:46.073Z,1608
2016-12-24T13:38:56.795Z,1364
2016-12-24T13:40:07.538Z,1456
2016-12-24T13:41:18.263Z,1316
2016-12-24T13:42:29.004Z,1304
2016-12-24T13:43:39.727Z,1256
2016-12-24T13:44:50.747Z,956
2016-12-24T13:46:01.474Z,1092
2016-12-24T13:47:12.217Z,1312
2016-12-24T13:48:22.910Z,1220
2016-12-24T13:49:33.649Z,1508
2016-12-24T13:50:44.406Z,1892
2016-12-24T13:51:55.169Z,1580
2016-12-24T13:53:05.894Z,1420
2016-12-24T13:54:16.618Z,1036
2016-12-24T13:55:27.363Z,1048
2016-12-24T13:56:38.083Z,956
2016-12-24T13:57:48.813Z,976
2016-12-24T13:58:59.532Z,948
2016-12-24T14:00:10.271Z,804
2016-12-24T14:01:20.991Z,800
2016-12-24T14:02:31.722Z,596
2016-12-24T14:03:42.465Z,792
2016-12-24T14:04:53.179Z,928
2016-12-24T14:06:03.911Z,956
2016-12-24T14:07:14.625Z,736
2016-12-24T14:08:25.343Z,884
2016-12-24T14:09:36.045Z,1120
2016-12-24T14:10:46.763Z,1028
2016-12-24T14:11:57.481Z,620
2016-12-24T14:13:08.180Z,668
2016-12-24T14:14:18.902Z,460
2016-12-24T14:15:29.626Z,388
2016-12-24T14:16:40.368Z,424
2016-12-24T14:17:51.092Z,636
2016-12-24T14:19:01.828Z,672
2016-12-24T14:20:12.557Z,740
2016-12-24T14:21:23.292Z,824
2016-12-24T14:22:34.024Z,852
2016-12-24T14:23:44.795Z,788
2016-12-24T14:24:55.538Z,748
2016-12-24T14:26:06.251Z,708
2016-12-24T14:27:16.955Z,668
2016-12-24T14:28:27.950Z,644
2016-12-24T14:29:38.650Z,644
2016-12-24T14:30:49.375Z,632
2016-12-24T14:32:00.117Z,620
2016-12-24T14:33:10.852Z,580
2016-12-24T14:34:21.581Z,532
2016-12-24T14:35:32.282Z,492
2016-12-24T14:36:43.331Z,476
2016-12-24T14:37:54.068Z,448
2016-12-24T14:39:04.794Z,436
2016-12-24T14:40:15.540Z,432
2016-12-24T14:41:26.256Z,432
2016-12-24T14:42:36.978Z,436
2016-12-24T14:43:47.703Z,436
2016-12-24T14:44:58.420Z,444
2016-12-24T14:46:09.145Z,452
2016-12-24T14:47:19.879Z,456
2016-12-24T14:48:30.586Z,432
2016-12-24T14:49:41.311Z,384
2016-12-24T14:50:52.026Z,348
2016-12-24T14:52:02.771Z,320
2016-12-24T14:53:13.492Z,316
2016-12-24T14:54:24.222Z,316
2016-12-24T14:55:34.966Z,308
2016-12-24T14:56:45.722Z,276
2016-12-24T14:57:56.472Z,228
2016-12-24T14:59:07.193Z,180
2016-12-24T15:00:17.922Z,152
2016-12-24T15:01:28.968Z,132
2016-12-24T15:02:39.713Z,112
2016-12-24T15:03:50.456Z,92
2016-12-24T15:05:01.181Z,76
2016-12-24T15:06:11.899Z,60
2016-12-24T15:07:22.622Z,52
2016-12-24T15:08:33.345Z,44
2016-12-24T15:09:44.106Z,44
2016-12-24T15:10:54.824Z,40
2016-12-24T15:12:05.553Z,32
2016-12-24T15:13:16.271Z,28
2016-12-24T15:14:27.004Z,20
2016-12-24T15:15:37.733Z,16
2016-12-24T15:16:48.465Z,12
2016-12-24T15:17:59.188Z,12
2016-12-24T15:19:09.951Z,8
2016-12-24T15:20:20.671Z,8
2016-12-24T15:21:31.414Z,8
2016-12-24T15:22:42.124Z,4
2016-12-24T15:23:52.843Z,4
2016-12-24T15:25:03.579Z,4
2016-12-24T15:26:14.336Z,0
2016-12-24T15:27:25.083Z,4
2016-12-24T15:28:35.826Z,4
2016-12-24T15:29:46.575Z,0
2016-12-24T15:30:57.319Z,0
2016-12-24T15:32:08.064Z,0
2016-12-24T15:33:18.782Z,0
2016-12-24T15:34:29.495Z,0
2016-12-24T15:35:40.232Z,0
2016-12-24T15:36:50.962Z,0
2016-12-24T15:38:01.672Z,0
2016-12-24T15:39:12.414Z,0
2016-12-24T15:40:23.133Z,0
2016-12-24T15:41:33.858Z,0
2016-12-24T15:42:44.599Z,0
2016-12-24T15:43:55.324Z,0
2016-12-24T15:45:06.067Z,0
2016-12-24T15:46:16.763Z,0
2016-12-24T15:47:27.512Z,0
2016-12-24T15:48:38.234Z,0
2016-12-24T15:49:48.978Z,0
2016-12-24T15:50:59.725Z,0
2016-12-24T15:52:10.448Z,0
2016-12-24T15:53:21.185Z,0
2016-12-24T15:54:31.906Z,0
2016-12-24T15:55:42.631Z,0
2016-12-24T15:56:53.353Z,0
2016-12-24T15:58:04.101Z,0
2016-12-24T15:59:14.823Z,0
2016-12-24T16:00:25.565Z,0
2016-12-24T16:01:36.292Z,0
2016-12-24T16:02:47.016Z,0
2016-12-24T16:03:57.728Z,0
2016-12-24T16:05:08.449Z,0
2016-12-24T16:06:19.174Z,0
2016-12-24T16:07:29.920Z,0
2016-12-24T16:08:40.655Z,0
2016-12-24T16:09:51.387Z,0
2016-12-24T16:11:02.104Z,0
2016-12-24T16:12:12.803Z,0
2016-12-24T16:13:23.546Z,0
2016-12-24T16:14:34.284Z,0
2016-12-24T16:15:44.988Z,0
2016-12-24T16:16:55.687Z,0
2016-12-24T16:18:06.414Z,0
2016-12-24T16:19:17.155Z,0
2016-12-24T16:20:27.876Z,0
2016-12-24T16:21:38.594Z,0
2016-12-24T16:22:49.360Z,0
2016-12-24T16:24:00.065Z,0
2016-12-24T16:25:10.790Z,0
2016-12-24T16:26:21.527Z,0
2016-12-24T16:27:32.253Z,0
2016-12-24T16:28:42.969Z,0
2016-12-24T16:29:53.690Z,0
2016-12-24T16:31:04.447Z,0
2016-12-24T16:32:15.182Z,0
2016-12-24T16:33:25.906Z,0
2016-12-24T16:34:36.603Z,0
2016-12-24T16:35:47.328Z,0
2016-12-24T16:36:58.066Z,0